Latest Weather Observations for Sydney Airport

IDN60901

Issued at 8:01 am EDT Wednesday 22 February 2017 (issued every 10 minutes, with the page automatically refreshed every 10 minutes)

About weather observations | Map of Sydney area stations | Latest observations for Sydney area | Other Formats
Station Details ID: 066037 Name: SYDNEY AIRPORT AMO Lat: -33.95 Lon: 151.17 Height: 6.0 m
Data from the previous 72 hours. | See also: Recent months at Sydney Airport
Date/Time
EDT
Temp
°C
App
Temp
°C
Dew
Point
°C
Rel
Hum
%
Delta-T
°C
Wind Press
QNH
hPa
Press
MSL
hPa
Rain since
9am
mm
Dir  Spd
km/h
Gust
km/h
Spd
kts
Gust
kts
22/07:30am 23.0 22.6 16.3 66 4.1 NNW 13 17 7 9 1020.9 1020.9 0.0
22/07:00am 22.0 21.9 16.1 69 3.5 NNW 11 13 6 7 1020.4 1020.4 0.0
22/06:30am 21.9 22.6 16.0 69 3.6 NNW 7 9 4 5 1020.1 1020.1 0.0
22/06:00am 21.0 21.2 15.8 72 3.1 NW 9 9 5 5 1019.9 1019.9 0.0
22/05:30am 21.3 21.9 15.8 71 3.3 NW 7 9 4 5 1019.8 1019.8 0.0
22/05:00am 21.7 22.0 16.0 70 3.4 NW 9 11 5 6 1019.7 1019.7 0.0
22/04:30am 21.3 21.8 15.6 70 3.4 NW 7 11 4 6 1019.6 1019.6 0.0
22/04:00am 21.7 22.2 15.5 68 3.7 N 7 9 4 5 1019.6 1019.6 0.0
22/03:30am 22.3 21.6 15.4 65 4.1 N 13 15 7 8 1019.6 1019.6 0.0
22/03:00am 22.5 21.4 15.4 64 4.2 NNE 15 19 8 10 1019.7 1019.7 0.0
22/02:30am 22.9 20.8 15.2 62 4.6 N 20 26 11 14 1019.7 1019.7 0.0
22/02:00am 23.0 21.6 15.6 63 4.4 N 17 22 9 12 1020.0 1020.0 0.0
22/01:30am 23.1 21.8 15.7 63 4.5 NNE 17 20 9 11 1020.3 1020.3 0.0
22/01:00am 23.3 21.5 15.6 62 4.6 NNE 19 26 10 14 1020.4 1020.4 0.0
22/12:30am 23.3 21.5 15.4 61 4.7 NNE 19 24 10 13 1020.6 1020.6 0.0
22/12:00am 23.5 21.4 15.3 60 4.9 NNE 20 26 11 14 1020.6 1020.6 0.0
 
Date/Time
EDT
Temp
°C
App
Temp
°C
Dew
Point
°C
Rel
Hum
%
Delta-T
°C
Wind Press
QNH
hPa
Press
MSL
hPa
Rain since
9am
mm
Dir  Spd
km/h
Gust
km/h
Spd
kts
Gust
kts
21/11:30pm 23.8 21.7 15.3 59 5.1 NNE 20 28 11 15 1020.9 1020.9 0.0
21/11:00pm 23.9 21.1 15.4 59 5.1 NNE 24 30 13 16 1020.9 1020.9 0.0
21/10:30pm 24.0 21.5 15.2 58 5.3 NNE 22 28 12 15 1021.0 1021.0 0.0
21/10:00pm 24.4 21.7 15.6 58 5.3 NNE 24 30 13 16 1020.9 1020.9 0.0
21/09:30pm 24.3 21.6 15.5 58 5.3 NNE 24 30 13 16 1020.8 1020.8 0.0
21/09:00pm 24.7 22.6 16.2 59 5.2 NNE 22 33 12 18 1020.7 1020.7 0.0
21/08:30pm 25.0 22.8 15.0 53 6.0 NNE 20 26 11 14 1020.3 1020.3 0.0
21/08:00pm 24.7 22.3 14.5 53 6.0 NE 20 26 11 14 1019.8 1019.8 0.0
21/07:30pm 24.9 21.4 14.4 52 6.2 NE 26 35 14 19 1019.5 1019.5 0.0
21/07:00pm 25.8 22.0 13.6 47 7.2 NE 26 32 14 17 1019.1 1019.1 0.0
21/06:30pm 25.2 21.4 14.6 51 6.3 ENE 28 39 15 21 1018.6 1018.6 0.0
21/06:00pm 25.6 21.4 15.6 54 6.1 E 32 39 17 21 1018.4 1018.4 0.0
21/05:30pm 25.8 21.9 15.5 53 6.2 E 30 37 16 20 1018.3 1018.3 0.0
21/05:00pm 26.5 23.3 14.3 47 7.3 E 24 33 13 18 1018.3 1018.3 0.0
21/04:30pm 26.1 22.9 13.2 44 7.5 E 22 30 12 16 1018.3 1018.3 0.0
21/04:00pm 26.3 23.5 13.1 44 7.7 E 20 30 11 16 1018.3 1018.3 0.0
21/03:30pm 26.0 22.7 12.8 44 7.7 ESE 22 30 12 16 1018.4 1018.4 0.0
21/03:00pm 25.2 21.5 12.8 46 7.2 ESE 24 30 13 16 1018.5 1018.5 0.0
21/02:30pm 26.1 23.4 14.6 49 6.9 SE 22 28 12 15 1018.8 1018.8 0.0
21/02:00pm 24.3 20.9 13.8 52 6.1 SE 24 30 13 16 1019.2 1019.2 0.0
21/01:30pm 23.8 21.8 15.6 60 4.9 S 20 28 11 15 1019.5 1019.5 0.0
21/01:00pm 24.6 22.7 15.8 58 5.3 S 20 26 11 14 1019.7 1019.7 0.0
21/12:30pm 25.0 21.9 13.5 48 6.7 S 22 26 12 14 1019.9 1019.9 0.0
21/12:00pm 24.2 21.9 15.7 59 5.1 S 22 28 12 15 1020.3 1020.3 0.0
21/11:30am 23.3 20.9 15.4 61 4.7 S 22 26 12 14 1020.5 1020.5 0.0
21/11:00am 22.6 20.6 15.0 62 4.5 S 19 24 10 13 1020.7 1020.7 0.0
21/10:30am 21.8 19.2 12.1 54 5.5 S 17 20 9 11 1020.6 1020.6 0.0
21/10:00am 21.6 20.3 10.1 48 6.2 SW 7 13 4 7 1020.4 1020.4 0.0
21/09:30am 21.3 19.4 9.2 46 6.4 W 9 11 5 6 1020.1 1020.1 0.0
21/09:00am 20.5 18.2 7.5 43 6.7 WNW 9 11 5 6 1019.8 1019.8 0.2
21/08:30am 19.4 17.0 6.8 44 6.3 NW 9 13 5 7 1019.4 1019.4 0.2
21/08:00am 18.7 16.2 6.5 45 6.1 NW 9 13 5 7 1018.9 1018.9 0.2
21/07:30am 18.2 15.2 6.1 45 6.0 NW 11 13 6 7 1018.6 1018.6 0.2
21/07:00am 17.7 14.3 5.9 46 5.7 NW 13 13 7 7 1018.0 1018.0 0.2
21/06:30am 17.8 14.5 6.3 47 5.7 NW 13 19 7 10 1017.7 1017.7 0.2
21/06:00am 17.6 14.1 5.5 45 5.8 NW 13 17 7 9 1017.5 1017.5 0.2
21/05:30am 18.2 14.8 6.1 45 6.0 NW 13 13 7 7 1017.1 1017.1 0.2
21/05:00am 18.8 16.2 6.3 44 6.2 NNW 9 9 5 5 1016.9 1016.9 0.2
21/04:30am 18.1 14.1 6.6 47 5.7 WSW 17 20 9 11 1017.0 1017.0 0.2
21/04:00am 18.5 13.8 6.0 44 6.1 SW 20 26 11 14 1017.0 1017.0 0.2
21/03:30am 18.2 14.5 6.1 45 6.0 SW 15 19 8 10 1016.9 1016.9 0.2
21/03:00am 18.7 14.5 5.9 43 6.3 SSW 17 20 9 11 1016.8 1016.8 0.2
21/02:30am 18.9 17.6 9.9 56 4.8 WSW 7 11 4 6 1016.7 1016.7 0.2
21/02:00am 19.6 17.9 10.0 54 5.1 WSW 9 9 5 5 1016.6 1016.6 0.2
21/01:30am 19.5 17.7 10.8 57 4.7 SW 11 13 6 7 1016.8 1016.8 0.2
21/01:00am 19.4 17.0 10.1 55 5.0 WSW 13 15 7 8 1016.9 1016.9 0.2
21/12:30am 20.2 18.1 9.7 51 5.6 WSW 11 13 6 7 1016.8 1016.8 0.2
21/12:00am 20.8 18.7 9.7 49 5.9 WSW 11 13 6 7 1016.7 1016.7 0.2
 
Date/Time
EDT
Temp
°C
App
Temp
°C
Dew
Point
°C
Rel
Hum
%
Delta-T
°C
Wind Press
QNH
hPa
Press
MSL
hPa
Rain since
9am
mm
Dir  Spd
km/h
Gust
km/h
Spd
kts
Gust
kts
20/11:30pm 20.9 19.7 9.5 48 6.1 WNW 6 9 3 5 1016.3 1016.3 0.2
20/11:00pm 21.2 20.0 9.4 47 6.3 NNE 6 7 3 4 1016.1 1016.1 0.2
20/10:30pm 23.3 21.8 9.3 41 7.6 NNE 7 9 4 5 1015.7 1015.7 0.2
20/10:00pm 23.1 21.4 8.4 39 7.8 N 7 7 4 4 1015.6 1015.6 0.2
20/09:30pm 22.6 20.1 8.3 40 7.5 NNE 11 11 6 6 1015.0 1015.0 0.2
20/09:00pm 23.0 20.9 8.3 39 7.8 NE 9 13 5 7 1014.4 1014.4 0.2
20/08:30pm 23.1 20.7 7.2 36 8.2 NE 9 9 5 5 1013.7 1013.7 0.2
20/08:00pm 23.0 20.1 6.7 35 8.4 ENE 11 15 6 8 1013.1 1013.1 0.2
20/07:30pm 23.5 19.4 6.3 33 8.8 ENE 17 19 9 10 1012.3 1012.3 0.2
20/07:00pm 24.1 19.5 5.5 30 9.4 E 19 22 10 12 1011.6 1011.6 0.2
20/06:30pm 24.8 20.2 5.6 29 9.8 E 19 26 10 14 1011.1 1011.1 0.2
20/06:00pm 25.1 19.3 6.3 30 9.7 ENE 26 30 14 16 1010.6 1010.6 0.2
20/05:30pm 26.1 21.2 6.7 29 10.2 E 22 28 12 15 1010.3 1010.3 0.2
20/05:00pm 26.2 22.8 4.1 24 11.1 S 11 19 6 10 1010.1 1010.1 0.2
20/04:30pm 27.8 21.9 -2.1 14 13.5 NW 19 39 10 21 1009.6 1009.6 0.2
20/04:00pm 27.9 21.7 -3.0 13 13.8 WNW 20 28 11 15 1009.6 1009.6 0.2
20/03:30pm 28.7 22.3 -1.4 14 13.9 WNW 22 35 12 19 1009.7 1009.7 0.2
20/03:00pm 27.2 21.3 -0.8 16 12.9 WSW 20 33 11 18 1009.7 1009.7 0.2
20/02:30pm 27.0 21.4 -0.1 17 12.6 W 19 33 10 18 1009.9 1009.9 0.2
20/02:00pm 26.3 20.5 2.3 21 11.6 W 22 35 12 19 1009.9 1009.9 0.2
20/01:30pm 25.8 19.0 3.1 23 11.1 W 28 35 15 19 1010.1 1010.1 0.2
20/01:00pm 24.3 18.1 1.9 23 10.6 W 24 41 13 22 1010.4 1010.4 0.2
20/12:30pm 25.0 17.4 0.5 20 11.4 WSW 30 39 16 21 1010.7 1010.7 0.2
20/12:00pm 23.2 16.0 3.2 27 9.6 WSW 30 52 16 28 1010.8 1010.8 0.2
20/11:55am 23.0 16.1 2.5 26 9.7 WSW 28 52 15 28 1011.0 1011.0 0.2
20/11:30am 22.5 16.5 8.6 41 7.4 W 30 37 16 20 1011.1 1011.1 0.2
20/11:00am 20.8 14.3 11.7 56 5.1 WSW 37 50 20 27 1011.2 1011.2 0.0
20/10:30am 21.0 12.1 2.8 30 8.6 WSW 39 56 21 30 1011.4 1011.4 0.0
20/10:00am 20.6 10.9 2.9 31 8.3 WSW 43 61 23 33 1011.3 1011.3 0.0
20/09:32am 20.2 11.7 3.4 33 7.9 W 37 56 20 30 1011.0 1011.0 0.0
20/09:30am 20.5 12.3 4.9 36 7.6 W 37 54 20 29 1011.0 1011.0 0.0
20/09:00am 19.8 11.5 4.3 36 7.5 WNW 37 52 20 28 1010.9 1010.9 7.2
20/08:30am 19.5 13.0 6.3 42 6.6 W 30 41 16 22 1011.2 1011.2 7.2
20/08:00am 19.0 12.9 6.8 45 6.1 W 28 35 15 19 1011.1 1011.1 7.2
20/07:30am 18.0 14.0 6.8 48 5.6 W 17 30 9 16 1010.8 1010.8 7.2
20/07:00am 17.5 11.0 6.4 48 5.5 W 30 39 16 21 1010.5 1010.5 7.2
20/06:30am 17.6 12.2 6.2 47 5.6 WSW 24 32 13 17 1010.1 1010.1 7.2
20/06:00am 17.3 12.9 4.9 44 5.9 WSW 17 20 9 11 1009.8 1009.8 7.2
20/05:30am 17.6 12.3 4.9 43 6.1 WSW 22 28 12 15 1009.3 1009.3 7.2
20/05:00am 18.1 13.4 5.0 42 6.3 WSW 19 22 10 12 1009.0 1009.0 7.2
20/04:30am 17.8 13.4 4.7 42 6.2 WSW 17 24 9 13 1008.6 1008.6 7.2
20/04:00am 18.1 13.7 5.0 42 6.3 WSW 17 20 9 11 1008.3 1008.3 7.2
20/03:30am 18.5 13.8 5.0 41 6.5 WSW 19 24 10 13 1007.9 1007.9 7.2
20/03:00am 18.8 13.9 5.3 41 6.6 WSW 20 28 11 15 1007.4 1007.4 7.2
20/02:30am 19.4 13.5 5.8 41 6.7 W 26 32 14 17 1007.2 1007.2 7.2
20/02:00am 19.5 13.8 8.2 48 5.9 W 28 33 15 18 1007.0 1007.0 7.2
20/01:30am 19.6 15.6 10.3 55 5.0 WSW 22 32 12 17 1006.8 1006.8 7.2
20/01:00am 19.1 18.1 14.6 75 2.6 W 13 17 7 9 1006.8 1006.8 7.2
20/12:30am 19.6 18.6 14.6 73 2.9 WSW 13 15 7 8 1006.7 1006.7 7.2
20/12:00am 19.3 18.3 14.6 74 2.7 WSW 13 17 7 9 1006.8 1006.8 7.2
 
Date/Time
EDT
Temp
°C
App
Temp
°C
Dew
Point
°C
Rel
Hum
%
Delta-T
°C
Wind Press
QNH
hPa
Press
MSL
hPa
Rain since
9am
mm
Dir  Spd
km/h
Gust
km/h
Spd
kts
Gust
kts
19/11:30pm 19.7 17.8 14.1 70 3.2 SW 17 22 9 12 1006.8 1006.8 7.2
19/11:00pm 20.2 18.2 15.0 72 3.1 SW 19 24 10 13 1007.1 1007.1 7.2
19/10:30pm 20.8 19.8 16.6 77 2.5 SSW 17 24 9 13 1006.6 1006.6 7.2
19/10:00pm 21.0 20.7 16.4 75 2.8 SSW 13 19 7 10 1006.4 1006.4 7.2
19/09:30pm 21.2 21.0 19.3 89 1.2 SW 19 30 10 16 1005.7 1005.7 7.2
19/09:00pm 20.7 20.9 18.5 87 1.4 SSW 15 22 8 12 1005.9 1005.9 7.2
19/08:30pm 20.6 21.7 18.9 90 1.1 SSE 11 15 6 8 1005.8 1005.8 7.2
19/08:26pm 20.2 20.6 18.1 88 1.3 SSE 13 15 7 8 1005.8 1005.8 7.2
19/08:00pm 21.7 21.7 18.9 84 1.8 ESE 17 24 9 13 1006.1 1006.1 4.6
19/07:52pm 22.5 21.9 18.5 78 2.5 SE 19 24 10 13 1005.8 1005.8 0.6
19/07:30pm 23.4 21.9 17.6 70 3.6 E 22 30 12 16 1005.3 1005.3 0.2
19/07:00pm 24.0 22.1 17.7 68 3.9 ESE 24 30 13 16 1005.4 1005.4 0.2
19/06:30pm 24.1 22.4 17.1 65 4.3 E 22 32 12 17 1005.4 1005.4 0.2
19/06:00pm 23.6 21.2 17.3 67 3.9 ESE 26 30 14 16 1005.3 1005.3 0.2
19/05:30pm 24.3 22.3 17.5 66 4.2 ESE 24 32 13 17 1005.1 1005.1 0.2
19/05:00pm 24.4 22.5 16.6 61 4.8 SE 22 28 12 15 1004.9 1004.9 0.2
19/04:30pm 24.5 22.0 16.2 60 5.1 SE 24 30 13 16 1005.2 1005.2 0.2
19/04:00pm 24.4 21.5 16.1 60 5.1 SSE 26 32 14 17 1005.4 1005.4 0.2
19/03:30pm 24.7 21.6 15.6 57 5.5 SE 26 32 14 17 1005.5 1005.5 0.2
19/03:00pm 24.7 22.3 15.3 56 5.7 SE 22 28 12 15 1006.0 1006.0 0.2
19/02:30pm 24.9 22.4 15.2 54 5.8 SE 22 26 12 14 1006.3 1006.3 0.2
19/02:00pm 25.0 23.5 15.3 55 5.9 SSE 17 22 9 12 1006.8 1006.8 0.2
19/01:30pm 24.0 23.5 16.0 61 4.9 SSE 13 17 7 9 1007.4 1007.4 0.0
19/01:00pm 23.3 21.2 14.6 58 5.2 SSE 19 26 10 14 1007.5 1007.5 0.0
19/12:30pm 22.1 19.1 14.7 63 4.4 S 24 28 13 15 1007.9 1007.9 0.0
19/12:00pm 22.9 20.5 15.5 63 4.4 SSE 22 30 12 16 1008.4 1008.4 0.0
19/11:30am 22.0 18.9 14.6 63 4.4 S 24 30 13 16 1008.8 1008.8 0.0
19/11:00am 21.6 18.9 14.7 65 4.1 S 22 28 12 15 1009.0 1009.0 0.0
19/10:30am 20.8 18.7 14.7 68 3.6 S 19 37 10 20 1008.8 1008.8 0.0
19/10:00am 20.8 18.4 14.5 67 3.7 SSW 20 26 11 14 1009.1 1009.1 0.0
19/09:30am 21.0 17.7 15.1 69 3.5 SSW 26 32 14 17 1008.8 1008.8 0.0
19/09:00am 20.8 18.8 15.4 71 3.2 SW 20 26 11 14 1008.9 1008.9 0.2
19/08:30am 20.1 17.5 14.9 72 3.0 SW 22 28 12 15 1008.8 1008.8 0.2

Latest Capital City Observations: Canberra | Sydney | Melbourne | Brisbane | Adelaide | Perth | Hobart | Darwin

Other Formats:

Comma delimited format used in spreadsheet applications
http://www.bom.gov.au/fwo/IDN60901/IDN60901.94767.axf

JavaScript Object Notation format (JSON) in row-major order
http://www.bom.gov.au/fwo/IDN60901/IDN60901.94767.json